Onigum, Minnesota
Current Conditions -  °F | °C
As of 2:15 PM on Thursday 29 Jan 2015 (Local Time) from KY49 Reporting Station
Broken Clouds Broken Clouds  
Wind Chill:   Ceiling: 2100
Heat Index: 14°   Visibility: 10mi
Dew Point:   Wind: 13mph
Humidity: 71%   Direction: 310°NW
Pressure: 30.35"   Gusts: 17mph
Location:  47.0507°N, 94.6083°W
Report Text: KY49 292015Z AUTO 31011G15KT 10SM BKN021 BKN026 M10/M14 A3035 RMK AO2 T11001143
Loading
Personal Weather Stations






























Interactive Weather Map New forecast layout! Learn more

10-Day Weather Forecast

Advertisements
Track Severe Weather on mobile